Αρχική σελίδα
METAR-TAF:

METAR-TAF

Αεροδρόμια :

Σάντα Κρουζ, Ρίο ντε Τζανέιρο, Βραζιλία

γεωγραφικό πλάτος: 22-56S, γεωγραφικό μήκος: 043-43W, υψόμετρο: 3 μ

Παρών καιρός

Η αναφορά έγινε 1 ώρα και 0 λεπτά πριν, στις 19:00 UTC
Άνεμος 6 kt από Β/BA
Θερμοκρασία 32°C
Υγρασία 32%
Πίεση 1012 hPa
Ορατότητα 10 χλμ και άνω
Δεν υπάρχουν νέφη με βάση κάτω από τα 1500 μ. και δεν υπάρχουν νέφη σωρειτομελανίτες.

METAR: SBSC 171900Z 03006KT CAVOK 32/13 Q1012

Χρόνος: 17:00 (20:00 UTC)

Πρόγνωση Καιρού

Η αναφορά έγινε 5 ώρες και 0 λεπτά πριν, στις 15:00 UTC
Η πρόγνωση ισχύει από τις 17 στις 18 UTC έως τις 18 στις 06 UTC
Άνεμος 6 kt από Β/BΔ
Ορατότητα 10 χλμ και άνω
Δεν υπάρχουν νέφη με βάση κάτω από τα 1500 μ. και δεν υπάρχουν νέφη σωρειτομελανίτες.

TAF: SBSC 171500Z 1718/1806 34006KT CAVOK TX32/1718Z TN21/1806Z RMK PDW

Μετεωρολογικές αναφορές και προγνώσεις για περισσότερα από 4000 αεροδρόμια (δελτία METAR και TAF).

Οι διαθέσιμοι σταθμοί απεικονίζονται στο χάρτη με κίτρινες και κόκκινες κουκκίδες.

Μετακινήστε το ποντίκι πάνω από τις κουκκίδες για να δείτε το όνομα του σταθμού.

Στη συνέχεια, κάντε κλικ για να δείτε τις μετεωρολογικές αναφορές και τις προγνώσεις καιρού.

Για να αλλάξετε το χάρτη: κάντε κλικ στα πράσινα κουμπιά με τον μαύρο σταυρό για να ζουμάρετε, στο πράσινο κουμπί με την παύλα για να αφαιρέσετε το ζουμ ή στα πράσινα βέλη για να αντιπαραβάλλετε χάρτες.


METAR-TAF: